createdAt,value
2022-11-24T00:03:39.473Z,11.7
2022-11-24T00:08:41.986Z,12
2022-11-24T00:13:44.147Z,11.3
2022-11-24T00:18:46.565Z,11.1
2022-11-24T00:23:48.641Z,12.3
2022-11-24T00:28:50.860Z,11.8
2022-11-24T00:33:53.050Z,12
2022-11-24T00:38:56.079Z,12.3
2022-11-24T00:43:58.316Z,12.3
2022-11-24T00:49:00.505Z,13
2022-11-24T00:54:02.567Z,12.3
2022-11-24T00:59:04.551Z,12.7
2022-11-24T01:04:06.506Z,13
2022-11-24T01:09:08.533Z,13.3
2022-11-24T01:14:10.591Z,13
2022-11-24T01:19:12.713Z,13.7
2022-11-24T01:24:14.722Z,13.5
2022-11-24T01:29:16.866Z,13.9
2022-11-24T01:34:19.012Z,14.5
2022-11-24T01:39:21.171Z,15.2
2022-11-24T01:44:23.371Z,14.7
2022-11-24T01:49:25.500Z,14.8
2022-11-24T01:54:27.541Z,14.4
2022-11-24T01:59:29.567Z,20.6
2022-11-24T02:04:30.039Z,14.1
2022-11-24T02:09:33.022Z,12.9
2022-11-24T02:14:35.371Z,13.7
2022-11-24T02:19:37.959Z,13.2
2022-11-24T02:24:39.918Z,13.1
2022-11-24T02:29:41.962Z,12.6
2022-11-24T02:34:44.093Z,12.4
2022-11-24T02:39:46.181Z,12.5
2022-11-24T02:44:48.254Z,12.3
2022-11-24T02:49:50.394Z,12.6
2022-11-24T02:54:52.542Z,12.6
2022-11-24T02:59:54.860Z,12
2022-11-24T03:04:56.849Z,12.3
2022-11-24T03:09:58.954Z,12.7
2022-11-24T03:15:01.066Z,12.4
2022-11-24T03:20:06.253Z,13.3
2022-11-24T03:25:08.565Z,13.6
2022-11-24T03:30:10.573Z,14
2022-11-24T03:35:12.669Z,13.7
2022-11-24T03:40:14.936Z,13.7
2022-11-24T03:45:46.455Z,14.6
2022-11-24T03:50:18.942Z,14.1
2022-11-24T03:55:21.039Z,14.1
2022-11-24T04:00:23.354Z,14.1
2022-11-24T04:05:25.607Z,14.9
2022-11-24T04:10:28.027Z,15.9
2022-11-24T04:15:30.440Z,16.2
2022-11-24T04:20:32.879Z,17.8
2022-11-24T04:25:35.310Z,20.1
2022-11-24T04:30:37.579Z,31.6
2022-11-24T04:35:38.142Z,21.1
2022-11-24T04:40:40.213Z,22
2022-11-24T04:45:42.287Z,23
2022-11-24T04:50:44.347Z,24.2
2022-11-24T04:55:47.063Z,23.8
2022-11-24T05:00:49.278Z,23.9
2022-11-24T05:05:51.431Z,23.4
2022-11-24T05:10:53.577Z,23.8
2022-11-24T05:15:55.900Z,25.3
2022-11-24T05:20:58.446Z,26.5
2022-11-24T05:26:00.469Z,25.5
2022-11-24T05:31:02.781Z,27.9
2022-11-24T05:36:05.420Z,25.8
2022-11-24T05:41:07.618Z,25.7
2022-11-24T05:46:09.680Z,27
2022-11-24T05:51:11.823Z,38.7
2022-11-24T05:56:12.341Z,26
2022-11-24T06:01:14.406Z,25.9
2022-11-24T06:06:16.582Z,29.3
2022-11-24T06:11:18.648Z,27.9
2022-11-24T06:16:20.818Z,25.6
2022-11-24T06:21:23.980Z,25.7
2022-11-24T06:26:26.597Z,24.7
2022-11-24T06:31:28.892Z,24.1
2022-11-24T06:36:30.938Z,24.6
2022-11-24T06:41:33.007Z,24.6
2022-11-24T06:46:35.060Z,24
2022-11-24T06:51:37.234Z,23
2022-11-24T06:56:39.252Z,23
2022-11-24T07:01:41.437Z,23.4
2022-11-24T07:06:43.406Z,23.7
2022-11-24T07:11:46.054Z,23.5
2022-11-24T07:16:48.353Z,22.9
2022-11-24T07:21:50.794Z,23.6
2022-11-24T07:26:52.850Z,23
2022-11-24T07:31:54.990Z,22.6
2022-11-24T07:36:55.693Z,22.7
2022-11-24T07:41:57.681Z,22.7
2022-11-24T07:46:59.828Z,23.7
2022-11-24T07:52:01.809Z,22.6
2022-11-24T07:57:03.823Z,23.3
2022-11-24T08:02:05.955Z,23.9
2022-11-24T08:07:08.194Z,25.1
2022-11-24T08:12:10.269Z,23.5
2022-11-24T08:17:12.485Z,22.8
2022-11-24T08:22:14.825Z,22.2
2022-11-24T08:27:17.028Z,21.7
2022-11-24T08:32:23.253Z,20.5
2022-11-24T08:37:25.626Z,21.6
2022-11-24T08:42:27.618Z,22.2
2022-11-24T08:47:29.663Z,20
2022-11-24T08:52:31.820Z,21.1
2022-11-24T08:57:33.825Z,20.5
2022-11-24T09:02:35.915Z,19.5
2022-11-24T09:07:38.165Z,19.8
2022-11-24T09:12:40.457Z,19.8
2022-11-24T09:17:42.754Z,19.6
2022-11-24T09:22:44.980Z,19.4
2022-11-24T09:27:47.253Z,18.7
2022-11-24T09:32:49.395Z,18.5
2022-11-24T09:37:51.370Z,19.8
2022-11-24T09:42:54.653Z,19
2022-11-24T09:47:56.871Z,18.5
2022-11-24T09:52:58.981Z,19.6
2022-11-24T09:58:00.961Z,19.8
2022-11-24T10:03:02.982Z,20.1
2022-11-24T10:08:05.002Z,20.1
2022-11-24T10:13:07.016Z,19.7
2022-11-24T10:18:17.111Z,19.7
2022-11-24T10:23:09.604Z,19.1
2022-11-24T10:28:11.596Z,18.4
2022-11-24T10:33:13.566Z,18.6
2022-11-24T10:38:15.537Z,18.4
2022-11-24T10:43:17.548Z,18.6
2022-11-24T10:48:19.504Z,26.6
2022-11-24T10:53:19.964Z,18.7
2022-11-24T10:58:21.963Z,18.2
2022-11-24T11:03:24.156Z,17.4
2022-11-24T11:08:26.361Z,17.7
2022-11-24T11:13:28.366Z,19.1
2022-11-24T11:18:30.397Z,17
2022-11-24T11:23:32.476Z,16.5
2022-11-24T11:28:34.556Z,16.3
2022-11-24T11:34:10.604Z,16.7
2022-11-24T11:38:40.543Z,17.6
2022-11-24T11:43:42.989Z,16.3
2022-11-24T11:48:45.084Z,15.8
2022-11-24T11:53:47.145Z,18.1
2022-11-24T11:58:49.204Z,15
2022-11-24T12:03:51.558Z,14.5
2022-11-24T12:09:21.421Z,13.6
2022-11-24T12:13:56.300Z,13.6
2022-11-24T12:18:59.592Z,12.6
2022-11-24T12:24:01.974Z,12.9
2022-11-24T12:29:04.338Z,11.4
2022-11-24T12:34:06.464Z,11.4
2022-11-24T12:44:11.212Z,10.6
2022-11-24T12:49:14.217Z,10.4
2022-11-24T12:54:16.278Z,10.4
2022-11-24T12:59:18.216Z,10
2022-11-24T13:04:20.313Z,8.6
2022-11-24T13:09:22.442Z,8.3
2022-11-24T13:14:24.721Z,8.5
2022-11-24T13:19:26.961Z,8.6
2022-11-24T13:24:29.366Z,8.2
2022-11-24T13:29:31.712Z,8.1
2022-11-24T13:34:34.960Z,7.4
2022-11-24T13:39:46.035Z,7.9
2022-11-24T13:44:42.065Z,8.7
2022-11-24T13:49:44.499Z,8.4
2022-11-24T13:54:47.110Z,8.8
2022-11-24T14:04:52.332Z,7.8
2022-11-24T14:09:54.555Z,7.5
2022-11-24T14:14:56.882Z,8
2022-11-24T14:19:59.267Z,8.2
2022-11-24T14:25:01.697Z,8.1
2022-11-24T14:30:03.938Z,8.3
2022-11-24T14:35:06.856Z,8.8
2022-11-24T14:40:09.267Z,8.3
2022-11-24T14:45:11.429Z,8.6
2022-11-24T14:50:13.697Z,8.7
2022-11-24T14:55:24.131Z,8.6
2022-11-24T15:00:16.441Z,9.2
2022-11-24T15:05:18.593Z,9
2022-11-24T15:10:20.576Z,9
2022-11-24T15:15:22.637Z,9.6
2022-11-24T15:20:24.645Z,9.4
2022-11-24T15:25:26.908Z,9.2
2022-11-24T15:30:29.090Z,8.5
2022-11-24T15:35:31.040Z,8.2
2022-11-24T15:40:33.348Z,8
2022-11-24T15:45:35.336Z,8
2022-11-24T15:50:37.344Z,7.6
2022-11-24T15:55:39.369Z,8.9
2022-11-24T16:00:41.545Z,8.2
2022-11-24T16:05:43.860Z,7.2
2022-11-24T16:10:45.856Z,7.2
2022-11-24T16:15:47.881Z,7.1
2022-11-24T16:20:49.988Z,7.5
2022-11-24T16:25:52.538Z,7.4
2022-11-24T16:30:54.929Z,7.7
2022-11-24T16:35:57.005Z,9.2
2022-11-24T16:40:59.022Z,7.9
2022-11-24T16:46:01.220Z,8.5
2022-11-24T16:51:03.451Z,7.6
2022-11-24T16:56:05.595Z,7.7
2022-11-24T17:01:07.752Z,8.7
2022-11-24T17:06:10.095Z,8.6
2022-11-24T17:11:12.272Z,9.9
2022-11-24T17:16:14.548Z,8.7
2022-11-24T17:21:16.766Z,9
2022-11-24T17:26:18.897Z,10
2022-11-24T17:31:20.936Z,9.7
2022-11-24T17:36:23.255Z,9.3
2022-11-24T17:41:25.571Z,9.4
2022-11-24T17:46:27.782Z,10.4
2022-11-24T17:51:30.178Z,9.6
2022-11-24T17:56:32.168Z,11.1
2022-11-24T18:01:34.430Z,9.6
2022-11-24T18:06:36.900Z,9.5
2022-11-24T18:11:39.085Z,9.8
2022-11-24T18:16:41.295Z,9.6
2022-11-24T18:21:43.747Z,10
2022-11-24T18:26:46.072Z,9.5
2022-11-24T18:31:48.157Z,9.5
2022-11-24T18:36:50.457Z,10.2
2022-11-24T18:41:52.741Z,10
2022-11-24T18:46:55.011Z,10.7
2022-11-24T18:51:57.485Z,11.1
2022-11-24T18:57:04.316Z,12.3
2022-11-24T19:02:06.826Z,12.2
2022-11-24T19:07:09.293Z,11.2
2022-11-24T19:12:11.438Z,11.8
2022-11-24T19:17:13.455Z,11.4
2022-11-24T19:22:15.559Z,10.9
2022-11-24T19:27:17.703Z,11.2
2022-11-24T19:32:19.736Z,10.4
2022-11-24T19:37:21.790Z,12.3
2022-11-24T19:42:23.883Z,11.6
2022-11-24T19:47:26.146Z,12.9
2022-11-24T19:52:28.523Z,13.1
2022-11-24T19:57:30.536Z,14.4
2022-11-24T20:02:32.630Z,13.4
2022-11-24T20:07:35.060Z,13.4
2022-11-24T20:12:38.670Z,13.2
2022-11-24T20:17:40.558Z,12.9
2022-11-24T20:22:42.523Z,13.3
2022-11-24T20:27:45.107Z,13.1
2022-11-24T20:32:45.871Z,13.1
2022-11-24T20:37:47.841Z,14.9
2022-11-24T20:42:49.831Z,14.6
2022-11-24T20:47:51.810Z,13.7
2022-11-24T20:52:53.866Z,16.2
2022-11-24T20:57:55.995Z,15.7
2022-11-24T21:02:58.114Z,15
2022-11-24T21:08:00.194Z,15.7
2022-11-24T21:13:02.194Z,16
2022-11-24T21:18:04.184Z,16.6
2022-11-24T21:23:06.120Z,16.2
2022-11-24T21:28:08.223Z,15.9
2022-11-24T21:33:10.306Z,16.4
2022-11-24T21:38:12.998Z,15.7
2022-11-24T21:43:15.771Z,15.8
2022-11-24T21:48:17.784Z,47.9
2022-11-24T21:53:19.796Z,16.2
2022-11-24T21:58:21.858Z,16.4
2022-11-24T22:03:23.834Z,16.5
2022-11-24T22:08:25.791Z,16.1
2022-11-24T22:13:27.847Z,16.5
2022-11-24T22:18:29.916Z,15.9
2022-11-24T22:23:32.110Z,16.1
2022-11-24T22:28:34.315Z,15.7
2022-11-24T22:33:36.332Z,16.3
2022-11-24T22:38:38.410Z,16.6
2022-11-24T22:43:40.448Z,16.7
2022-11-24T22:48:42.499Z,16.2
2022-11-24T22:53:44.662Z,16.1
2022-11-24T22:58:46.708Z,16.2
2022-11-24T23:03:48.823Z,16.7
2022-11-24T23:08:51.058Z,17
2022-11-24T23:13:53.132Z,17.6
2022-11-24T23:18:55.429Z,19.2
2022-11-24T23:23:57.416Z,17.2
2022-11-24T23:28:59.559Z,16.6
2022-11-24T23:34:01.954Z,16.9
2022-11-24T23:39:03.973Z,17
2022-11-24T23:44:05.970Z,16.7
2022-11-24T23:49:07.962Z,16.6
2022-11-24T23:54:09.988Z,17.3
2022-11-24T23:59:12.088Z,16.6
